Terminal Aerodrome Forecast
Issued by NWS

Home | Current Version | Previous Version | Graphics & Text | Print | Product List | Glossary On
Versions: 1 2 3 4 5 6 7 8 9 10 11 12 13 14 15 16 17 18
000
FTUS43 KICT 210524
TAFHUT
TAF
KHUT 210524Z 2106/2206 36012KT P6SM SCT120 SCT250
     FM210800 01012KT P6SM BKN100
     FM211700 03011KT P6SM BKN080
     FM220000 05010KT P6SM -SN BKN035
     FM220200 05009KT 4SM -FZRAPL OVC020=

USA.gov is the U.S. government's official web portal to all federal, state and local government web resources and services.